Main page
METAR-TAF:

METAR-TAF

Airports :

Zahedan, Iran

Zahedan Airport

latitude: 29-28N, longitude: 060-53E, elevation: 1370 m

Current weather observation

The report was made 1 hour and 0 minutes ago, at 01:00 UTC
Wind 8 kt from the South/Southeast
Temperature 17°C
Humidity 25%
Pressure 1009 hPa
Visibility 10 km or more
no clouds below 1500 m and no cumulonimbus

METAR: OIZH 290100Z 16008KT CAVOK 17/M03 Q1009 A2981

Time: 06:30 (02:00 UTC)

Forecast

The report was made 3 hours and 0 minutes ago, at 23:00 UTC
Forecast valid from 29 at 00 UTC to 30 at 06 UTC
Wind 8 kt from the North/Northeast
Visibility: 7000 m
Temporary
from 29 at 09 UTC to 29 at 15 UTC
Wind 14 kt from the North/Northeast with gusts up to 23 kt
Visibility: 3000 m
sand

TAF: OIZH 282300Z 2900/3006 03004MPS 7000 NSC TEMPO 2909/2915 03007G12MPS 3000 SA

Weather observations and forecasts of more than 4000 airports (METAR and TAF reports).

The available stations are represented by yellow and red dots on the map.

Hover mouse over dot to see the name of the station.

Then click to see weather observations and forecasts.

To change the map : click on the green buttons with a black cross to zoom in, on the green button with a dash to zoom out, or on the green arrows for adjacent maps.


METAR-TAF: